Time;durP1;ratioP1;P1;durP2;ratioP2;P2;SDS_P1;SDS_P2;PMS_P1;PMS_P2;Temp;Humidity;BMP_temperature;BMP_pressure;BME280_temperature;BME280_humidity;BME280_pressure;Samples;Min_cycle;Max_cycle;Signal;HPM_P1;HPM_P2
2022/08/27 00:02:28;;;;;;;0.60;0.60;;;;;;;21.70;69.78;99038.00;4954445;28;20398;-69
2022/08/27 00:04:57;;;;;;;1.35;1.25;;;;;;;21.71;69.95;99034.50;4949032;28;20098;-69
2022/08/27 00:07:26;;;;;;;1.47;1.13;;;;;;;21.66;70.09;99041.72;4953205;28;20047;-69
2022/08/27 00:09:55;;;;;;;1.08;1.00;;;;;;;21.60;70.41;99048.06;4954898;28;20509;-69
2022/08/27 00:12:24;;;;;;;1.02;0.93;;;;;;;21.56;70.89;99043.13;4952475;28;20053;-69
2022/08/27 00:14:53;;;;;;;1.23;1.13;;;;;;;21.55;71.19;99036.25;4951873;28;20051;-69
2022/08/27 00:17:22;;;;;;;3.37;2.90;;;;;;;21.53;71.60;99040.69;4952770;28;20042;-69
2022/08/27 00:19:52;;;;;;;0.90;0.90;;;;;;;21.54;71.54;99040.63;4954713;28;20039;-69
2022/08/27 00:22:21;;;;;;;0.60;0.60;;;;;;;21.56;71.68;99050.94;4955016;28;20047;-69
2022/08/27 00:24:50;;;;;;;1.38;1.02;;;;;;;21.56;71.70;99053.53;4952495;28;20098;-69
2022/08/27 00:27:19;;;;;;;3.73;2.47;;;;;;;21.57;71.56;99063.00;4953852;28;20497;-69
2022/08/27 00:29:48;;;;;;;2.03;1.45;;;;;;;21.54;71.16;99056.22;4951352;28;20307;-69
2022/08/27 00:32:17;;;;;;;1.50;1.25;;;;;;;21.52;70.85;99059.81;4951936;28;20506;-69
2022/08/27 00:34:45;;;;;;;3.35;1.05;;;;;;;21.48;70.89;99053.94;4951600;28;20047;-69
2022/08/27 00:37:16;;;;;;;1.40;1.10;;;;;;;21.50;70.74;99065.06;4954795;28;20047;-69
2022/08/27 00:39:44;;;;;;;0.98;0.80;;;;;;;21.46;70.68;99061.00;4954905;28;20134;-69
2022/08/27 00:42:13;;;;;;;0.80;0.80;;;;;;;21.45;70.59;99050.69;4955573;28;20445;-69
2022/08/27 00:44:42;;;;;;;2.17;1.15;;;;;;;21.45;70.78;99059.28;4956155;28;20447;-69
2022/08/27 00:47:15;;;;;;;2.25;1.15;;;;;;;21.47;70.52;99054.03;4954450;28;20078;-70
2022/08/27 00:49:49;;;;;;;1.27;1.17;;;;;;;21.46;70.35;99052.34;4950641;28;20047;-69
2022/08/27 00:52:24;;;;;;;0.93;0.93;;;;;;;21.42;70.42;99063.84;4951086;28;20449;-69
2022/08/27 00:54:59;;;;;;;2.25;1.67;;;;;;;21.42;70.44;99063.84;4951485;28;20390;-71
2022/08/27 00:57:28;;;;;;;0.82;0.75;;;;;;;21.38;70.30;99065.75;4949990;28;20113;-69
2022/08/27 00:59:57;;;;;;;12.05;1.85;;;;;;;21.38;70.16;99064.00;4954770;28;20375;-69
2022/08/27 01:02:29;;;;;;;0.75;0.75;;;;;;;21.35;70.40;99071.94;4953967;28;20445;-70
2022/08/27 01:05:00;;;;;;;1.35;1.10;;;;;;;21.34;70.38;99072.03;4948871;28;20050;-70
2022/08/27 01:07:33;;;;;;;1.40;1.25;;;;;;;21.35;70.31;99074.53;4947024;28;20574;-69
2022/08/27 01:10:04;;;;;;;1.98;1.00;;;;;;;21.34;70.70;99072.88;4950966;28;20043;-69
2022/08/27 01:12:34;;;;;;;1.25;1.08;;;;;;;21.35;70.53;99076.31;4949271;28;20115;-69
2022/08/27 01:15:09;;;;;;;0.88;0.88;;;;;;;21.34;70.04;99074.63;4951195;28;20501;-71
2022/08/27 01:17:41;;;;;;;1.73;1.27;;;;;;;21.33;70.13;99071.19;4953499;28;21171;-70
2022/08/27 01:20:15;;;;;;;3.08;1.25;;;;;;;21.35;70.42;99073.72;4952218;28;20130;-70
2022/08/27 01:22:55;;;;;;;2.05;1.23;;;;;;;21.31;70.09;99067.00;4953849;28;20055;-71
2022/08/27 01:25:26;;;;;;;4.47;1.45;;;;;;;21.27;70.43;99065.50;4949912;28;20053;-70
2022/08/27 01:27:59;;;;;;;1.13;1.05;;;;;;;21.18;70.47;99064.25;4954039;28;20098;-70
2022/08/27 01:30:28;;;;;;;1.05;0.73;;;;;;;21.15;70.80;99067.00;4948777;28;20094;-70
2022/08/27 01:32:57;;;;;;;1.77;1.27;;;;;;;21.15;70.95;99061.81;4956932;28;20047;-70
2022/08/27 01:35:26;;;;;;;0.98;0.90;;;;;;;21.16;71.20;99063.47;4955138;28;20556;-70
2022/08/27 01:37:55;;;;;;;1.60;1.00;;;;;;;21.18;71.26;99066.00;4955879;28;20051;-70
2022/08/27 01:40:26;;;;;;;19.08;2.95;;;;;;;21.22;70.92;99065.75;4958413;28;20577;-70
2022/08/27 01:42:56;;;;;;;1.52;1.40;;;;;;;21.25;71.18;99065.59;4956195;28;20070;-71
2022/08/27 01:45:28;;;;;;;25.52;2.63;;;;;;;21.23;70.97;99064.84;4957326;28;20057;-70
2022/08/27 01:47:58;;;;;;;0.82;0.80;;;;;;;21.25;71.02;99065.59;4952923;28;20047;-70
2022/08/27 01:50:32;;;;;;;1.42;1.33;;;;;;;21.29;71.21;99064.50;4952888;28;20134;-71
2022/08/27 01:53:03;;;;;;;1.33;1.23;;;;;;;21.29;71.26;99069.69;4955696;28;20051;-71
2022/08/27 01:55:34;;;;;;;2.55;1.23;;;;;;;21.26;71.40;99069.00;4951182;28;20102;-70
2022/08/27 01:58:04;;;;;;;0.80;0.80;;;;;;;21.25;71.03;99065.59;4957828;28;20498;-70
2022/08/27 02:00:37;;;;;;;2.50;1.52;;;;;;;21.29;70.85;99068.84;4954844;28;20489;-70
2022/08/27 02:03:07;;;;;;;0.88;0.82;;;;;;;21.29;70.81;99069.69;4952716;28;20090;-70
2022/08/27 02:05:37;;;;;;;2.10;1.20;;;;;;;21.29;70.85;99064.50;4958112;28;20043;-70
2022/08/27 02:08:14;;;;;;;1.77;1.67;;;;;;;21.30;70.92;99066.19;4956139;28;20048;-73
2022/08/27 02:10:47;;;;;;;0.82;0.82;;;;;;;21.30;70.90;99071.38;4942210;28;20072;-70
2022/08/27 02:13:16;;;;;;;2.15;1.27;;;;;;;21.27;71.04;99071.53;4957076;28;20047;-70
2022/08/27 02:15:45;;;;;;;0.80;0.80;;;;;;;21.22;71.67;99076.13;4953766;28;20039;-70
2022/08/27 02:18:15;;;;;;;1.27;1.17;;;;;;;21.17;71.72;99074.69;4954884;28;20142;-72
2022/08/27 02:20:46;;;;;;;0.85;0.82;;;;;;;21.13;72.34;99076.63;4942579;28;20066;-70
2022/08/27 02:23:17;;;;;;;1.17;1.08;;;;;;;21.08;72.83;99078.63;4956683;28;20102;-70
2022/08/27 02:25:47;;;;;;;0.80;0.80;;;;;;;21.04;73.59;99079.66;4957362;28;20110;-70
2022/08/27 02:28:16;;;;;;;1.25;0.98;;;;;;;21.02;74.03;99071.13;4954149;28;20079;-70
2022/08/27 02:30:44;;;;;;;2.33;1.87;;;;;;;21.03;74.26;99066.78;4952538;28;20053;-70
2022/08/27 02:33:14;;;;;;;1.52;1.40;;;;;;;21.08;74.32;99070.84;4955062;28;20126;-70
2022/08/27 02:35:43;;;;;;;1.55;1.40;;;;;;;21.10;74.31;99066.41;4955936;28;20043;-70
2022/08/27 02:38:12;;;;;;;0.95;0.90;;;;;;;21.15;74.09;99077.38;4955781;28;20039;-70
2022/08/27 02:40:42;;;;;;;1.65;1.08;;;;;;;21.16;74.26;99068.66;4954406;28;20154;-70
2022/08/27 02:43:12;;;;;;;1.13;1.03;;;;;;;21.19;73.90;99062.47;4955507;28;20039;-70
2022/08/27 02:45:51;;;;;;;15.15;2.55;;;;;;;21.19;73.61;99063.31;4954180;28;20063;-72
2022/08/27 02:48:19;;;;;;;1.92;1.20;;;;;;;21.18;73.67;99059.06;4954984;28;20035;-70
2022/08/27 02:50:48;;;;;;;1.20;1.07;;;;;;;21.20;73.62;99059.81;4956904;28;20446;-70
2022/08/27 02:53:18;;;;;;;1.17;1.08;;;;;;;21.22;73.29;99063.16;4955991;28;20388;-70
2022/08/27 02:55:48;;;;;;;1.58;1.38;;;;;;;21.22;72.71;99063.16;4955976;28;20083;-68
2022/08/27 02:58:18;;;;;;;1.42;1.33;;;;;;;21.24;72.81;99068.25;4954918;28;20070;-70
2022/08/27 03:00:48;;;;;;;6.72;1.63;;;;;;;21.25;72.56;99068.19;4953971;28;20043;-71
2022/08/27 03:03:17;;;;;;;0.82;0.82;;;;;;;21.24;72.30;99066.50;4955208;28;20050;-70
2022/08/27 03:05:46;;;;;;;1.02;0.93;;;;;;;21.24;71.97;99061.31;4954661;28;20044;-70
2022/08/27 03:08:16;;;;;;;6.00;1.65;;;;;;;21.24;72.17;99061.31;4951852;28;20078;-71
2022/08/27 03:10:45;;;;;;;;;;;;;;;21.27;71.93;99060.31;4951925;28;20043;-70
2022/08/27 03:13:14;;;;;;;2.40;1.20;;;;;;;21.28;72.25;99072.38;4956780;28;20293;-71
2022/08/27 03:15:45;;;;;;;2.83;1.88;;;;;;;21.26;72.29;99075.03;4952192;28;20046;-71
2022/08/27 03:18:20;;;;;;;0.88;0.88;;;;;;;21.23;71.93;99077.81;4951720;28;20431;-70
2022/08/27 03:20:51;;;;;;;1.13;0.93;;;;;;;21.21;71.96;99073.63;4951996;28;20512;-70
2022/08/27 03:23:23;;;;;;;1.42;1.33;;;;;;;21.20;71.89;99069.34;4955418;28;20513;-70
2022/08/27 03:25:54;;;;;;;1.20;1.10;;;;;;;21.16;71.88;99073.84;4952216;28;20046;-70
2022/08/27 03:28:24;;;;;;;1.10;1.00;;;;;;;21.12;71.92;99072.34;4952969;28;20058;-70
2022/08/27 03:30:59;;;;;;;8.02;1.98;;;;;;;21.05;72.12;99071.00;4954636;28;20130;-70
2022/08/27 03:33:30;;;;;;;2.13;1.92;;;;;;;20.99;72.34;99066.13;4954673;28;20105;-70
2022/08/27 03:36:00;;;;;;;2.15;1.95;;;;;;;20.96;72.45;99068.03;4950983;28;20520;-70
2022/08/27 03:38:29;;;;;;;0.90;0.75;;;;;;;20.88;72.77;99063.22;4956897;28;20043;-70
2022/08/27 03:40:57;;;;;;;3.87;2.03;;;;;;;20.82;73.13;99068.75;4954691;28;20043;-70
2022/08/27 03:43:26;;;;;;;0.98;0.90;;;;;;;20.78;73.64;99067.22;4954246;28;20297;-70
2022/08/27 03:45:56;;;;;;;3.28;1.05;;;;;;;20.79;73.72;99070.66;4950727;28;20399;-71
2022/08/27 03:48:31;;;;;;;1.88;1.67;;;;;;;20.76;73.64;99063.88;4952058;28;20047;-70
2022/08/27 03:51:05;;;;;;;1.20;0.90;;;;;;;20.78;73.87;99067.22;4953697;28;20066;-70
2022/08/27 03:53:35;;;;;;;0.95;0.95;;;;;;;20.77;73.87;99073.34;4951371;28;20189;-70
2022/08/27 03:56:05;;;;;;;2.58;1.80;;;;;;;20.75;74.26;99066.56;4951400;28;20055;-71
2022/08/27 03:58:35;;;;;;;2.72;1.42;;;;;;;20.73;74.33;99074.44;4955204;29;20051;-70
2022/08/27 04:01:08;;;;;;;1.23;0.77;;;;;;;20.71;74.57;99068.44;4954053;28;20149;-70
2022/08/27 04:03:37;;;;;;;1.23;1.13;;;;;;;20.71;74.47;99071.03;4947121;28;20242;-70
2022/08/27 04:06:06;;;;;;;3.92;1.35;;;;;;;20.66;74.62;99054.88;4950045;28;20035;-70
2022/08/27 04:08:36;;;;;;;2.50;1.40;;;;;;;20.66;74.79;99062.66;4952792;28;20398;-70
2022/08/27 04:11:06;;;;;;;1.13;1.02;;;;;;;20.61;74.82;99075.06;4948214;28;20071;-70
2022/08/27 04:13:35;;;;;;;2.45;1.65;;;;;;;20.59;75.31;99066.50;4953076;28;20118;-70
2022/08/27 04:16:07;;;;;;;12.33;1.23;;;;;;;20.59;75.52;99071.69;4951432;28;20497;-71
2022/08/27 04:18:36;;;;;;;2.80;1.17;;;;;;;20.60;76.17;99073.38;4950973;28;20507;-70
2022/08/27 04:21:08;;;;;;;1.40;1.30;;;;;;;20.63;76.00;99065.44;4951294;28;20043;-70
2022/08/27 04:23:37;;;;;;;1.58;1.40;;;;;;;20.64;76.31;99067.09;4949937;28;20506;-70
2022/08/27 04:26:08;;;;;;;1.38;1.27;;;;;;;20.62;76.33;99066.34;4953829;28;20400;-70
2022/08/27 04:28:37;;;;;;;0.65;0.65;;;;;;;20.61;76.52;99059.50;4948278;28;20497;-70
2022/08/27 04:31:08;;;;;;;;;;;;;;;20.61;76.90;99069.88;4948990;28;20054;-70
2022/08/27 04:33:44;;;;;;;0.77;0.77;;;;;;;20.60;76.83;99065.59;4953886;28;19973;-70
2022/08/27 04:36:20;;;;;;;1.35;1.08;;;;;;;20.60;77.17;99069.03;4953448;28;20094;-70
2022/08/27 04:38:48;;;;;;;1.52;1.42;;;;;;;20.64;77.08;99070.53;4954391;28;20061;-70
2022/08/27 04:41:21;;;;;;;3.67;2.15;;;;;;;20.64;76.79;99072.28;4950763;28;20047;-70
2022/08/27 04:43:51;;;;;;;1.48;1.35;;;;;;;20.65;76.88;99076.56;4953518;28;20054;-73
2022/08/27 04:46:25;;;;;;;2.20;1.13;;;;;;;20.65;76.82;99082.59;4951961;28;20043;-70
2022/08/27 04:48:56;;;;;;;2.20;1.88;;;;;;;20.68;77.17;99082.41;4952719;28;20055;-70
2022/08/27 04:51:25;;;;;;;1.52;1.23;;;;;;;20.73;77.21;99078.78;4947955;28;20106;-70
2022/08/27 04:53:55;;;;;;;1.23;1.13;;;;;;;20.73;77.50;99089.16;4953310;28;20051;-70
2022/08/27 04:56:29;;;;;;;0.88;0.85;;;;;;;20.78;77.49;99087.16;4939702;28;20059;-72
2022/08/27 04:58:58;;;;;;;1.25;1.15;;;;;;;20.80;77.24;99086.16;4953862;28;20059;-70
2022/08/27 05:01:29;;;;;;;1.97;1.30;;;;;;;20.85;77.19;99078.94;4950154;28;20050;-73
2022/08/27 05:03:58;;;;;;;1.20;0.80;;;;;;;20.89;77.21;99080.50;4956012;28;20410;-70
2022/08/27 05:06:28;;;;;;;1.00;1.00;;;;;;;20.93;76.92;99071.63;4956318;28;20546;-70
2022/08/27 05:08:56;;;;;;;;;;;;;;;21.02;76.73;99076.31;4952672;28;20460;-70
2022/08/27 05:11:31;;;;;;;0.73;0.73;;;;;;;21.09;76.30;99082.06;4950834;28;19930;-70
2022/08/27 05:14:01;;;;;;;1.17;1.08;;;;;;;21.13;76.01;99087.03;4958245;28;20055;-69
2022/08/27 05:16:32;;;;;;;2.35;1.20;;;;;;;21.17;75.93;99085.94;4959294;28;20055;-69
2022/08/27 05:19:00;;;;;;;1.17;1.08;;;;;;;21.25;75.56;99088.97;4951696;28;20058;-70
2022/08/27 05:21:34;;;;;;;1.93;1.63;;;;;;;21.23;75.20;99075.22;4958957;28;20130;-69
2022/08/27 05:24:06;;;;;;;1.52;1.35;;;;;;;21.32;75.05;99079.91;4953106;28;20046;-70
2022/08/27 05:26:36;;;;;;;1.63;1.30;;;;;;;21.40;74.75;99086.47;4958861;28;20050;-70
2022/08/27 05:29:05;;;;;;;1.10;1.05;;;;;;;21.46;74.29;99075.72;4958363;28;20062;-70
2022/08/27 05:31:36;;;;;;;1.50;1.40;;;;;;;21.56;73.92;99082.94;4959074;28;20054;-69
2022/08/27 05:34:06;;;;;;;1.25;1.00;;;;;;;21.63;73.68;99091.22;4957743;28;20098;-71
2022/08/27 05:36:39;;;;;;;2.20;1.30;;;;;;;21.65;73.53;99086.78;4958835;29;20138;-70
2022/08/27 05:39:17;;;;;;;0.75;0.75;;;;;;;21.66;73.35;99093.66;4957908;28;20043;-70
2022/08/27 05:41:45;;;;;;;2.35;1.77;;;;;;;21.69;73.18;99083.09;4953995;28;20055;-71
2022/08/27 05:44:16;;;;;;;0.73;0.73;;;;;;;21.72;73.02;99090.72;4956017;28;20035;-70
2022/08/27 05:47:06;;;;;;;4.18;1.70;;;;;;;21.80;72.90;99088.53;4953723;28;20043;-69
2022/08/27 05:49:36;;;;;;;2.17;0.95;;;;;;;21.89;72.61;99085.44;4952705;28;20067;-69
2022/08/27 05:52:07;;;;;;;;;;;;;;;22.01;72.23;99095.16;4956306;28;20052;-68
2022/08/27 05:54:36;;;;;;;1.42;1.33;;;;;;;22.02;71.48;99086.44;4954679;28;19958;-68
2022/08/27 05:57:05;;;;;;;2.28;1.45;;;;;;;22.11;70.93;99083.31;4954097;28;20051;-73
2022/08/27 06:02:14;;;;;;;0.80;0.80;;;;;;;22.35;70.52;99081.91;4958773;28;20050;-69
2022/08/27 06:04:42;;;;;;;1.08;0.95;;;;;;;22.46;70.09;99082.09;4958680;29;20043;-71
2022/08/27 06:07:11;;;;;;;2.25;1.45;;;;;;;22.54;69.92;99089.47;4958250;28;20134;-70
2022/08/27 06:09:41;;;;;;;1.65;0.90;;;;;;;22.54;69.51;99090.31;4958531;28;20513;-71
2022/08/27 06:12:10;;;;;;;3.80;1.90;;;;;;;22.56;69.32;99092.81;4958154;28;20145;-68
2022/08/27 06:14:39;;;;;;;2.83;1.40;;;;;;;22.53;69.21;99104.22;4958102;29;20122;-69
2022/08/27 06:17:07;;;;;;;0.90;0.90;;;;;;;22.52;69.34;99097.38;4958186;29;20508;-69
2022/08/27 06:19:38;;;;;;;1.67;1.43;;;;;;;22.46;69.07;99102.91;4958190;28;20771;-70
2022/08/27 06:22:07;;;;;;;0.90;0.85;;;;;;;22.48;69.26;99111.47;4958120;28;20055;-70
2022/08/27 06:24:40;;;;;;;1.17;0.85;;;;;;;22.52;69.12;99115.56;4958180;28;20051;-69
2022/08/27 06:27:13;;;;;;;1.00;0.90;;;;;;;22.59;69.31;99119.50;4957972;29;20075;-70
2022/08/27 06:29:43;;;;;;;5.10;2.35;;;;;;;22.75;69.38;99129.03;4957951;29;20055;-70
2022/08/27 06:32:13;;;;;;;0.95;0.90;;;;;;;22.89;69.21;99132.47;4958048;29;20043;-70
2022/08/27 06:34:43;;;;;;;1.30;1.20;;;;;;;22.98;68.92;99136.31;4956898;29;20145;-70
2022/08/27 06:37:12;;;;;;;1.27;1.17;;;;;;;23.04;68.82;99143.75;4957775;28;20054;-70
2022/08/27 06:39:41;;;;;;;0.80;0.80;;;;;;;23.09;68.45;99150.34;4957633;29;20047;-70
2022/08/27 06:42:12;;;;;;;1.40;1.30;;;;;;;23.26;68.62;99170.16;4957663;28;20043;-70
2022/08/27 06:44:41;;;;;;;0.70;0.70;;;;;;;23.38;69.04;99198.09;4957834;28;20401;-68
2022/08/27 06:47:09;;;;;;;3.55;1.50;;;;;;;23.36;69.28;99189.56;4957589;28;20054;-69
2022/08/27 06:49:40;;;;;;;1.20;1.08;;;;;;;23.37;69.19;99179.97;4957817;29;20039;-69
2022/08/27 06:52:15;;;;;;;0.98;0.95;;;;;;;23.40;69.14;99179.75;4957615;28;20054;-69
2022/08/27 06:54:44;;;;;;;1.00;0.73;;;;;;;23.45;69.73;99175.97;4957532;28;20080;-69
2022/08/27 06:57:13;;;;;;;0.93;0.90;;;;;;;23.48;69.48;99164.53;4957273;28;20079;-69
2022/08/27 06:59:42;;;;;;;1.97;1.57;;;;;;;23.53;69.22;99160.72;4957669;29;20051;-68
2022/08/27 07:02:12;;;;;;;0.70;0.70;;;;;;;23.57;68.36;99151.75;4957258;29;20770;-70
2022/08/27 07:04:41;;;;;;;4.22;1.42;;;;;;;23.64;68.37;99153.06;4957280;28;20055;-70
2022/08/27 07:07:12;;;;;;;3.35;1.13;;;;;;;23.73;68.34;99157.69;4957166;29;20102;-70
2022/08/27 07:09:57;;;;;;;2.08;1.35;;;;;;;23.83;68.02;99158.78;4957198;28;20066;-70
2022/08/27 07:12:25;;;;;;;2.38;1.25;;;;;;;23.94;67.92;99155.50;4956029;29;20051;-70
2022/08/27 07:14:58;;;;;;;1.95;1.02;;;;;;;24.13;67.48;99155.19;4957360;28;20075;-69
2022/08/27 07:17:27;;;;;;;1.63;1.35;;;;;;;24.20;66.93;99152.09;4957110;28;20043;-68
2022/08/27 07:19:56;;;;;;;2.05;1.65;;;;;;;24.30;66.91;99149.72;4956880;29;20090;-70
2022/08/27 07:22:25;;;;;;;1.55;1.23;;;;;;;24.38;66.38;99139.59;4957325;29;20043;-69
2022/08/27 07:24:54;;;;;;;1.65;1.45;;;;;;;24.45;65.78;99151.34;4956026;28;20051;-68
2022/08/27 07:27:24;;;;;;;1.97;1.57;;;;;;;24.49;65.46;99147.59;4956775;29;20055;-70
2022/08/27 07:29:53;;;;;;;1.58;1.27;;;;;;;24.51;65.00;99135.28;4956813;29;20281;-68
2022/08/27 07:32:21;;;;;;;1.45;1.33;;;;;;;24.51;65.00;99135.28;4956994;29;20039;-68
2022/08/27 07:34:57;;;;;;;1.00;0.90;;;;;;;24.49;64.43;99137.16;4956733;29;20134;-68
2022/08/27 07:37:26;;;;;;;3.60;1.23;;;;;;;24.44;64.22;99134.00;4956639;28;20040;-68
2022/08/27 07:40:05;;;;;;;2.85;1.58;;;;;;;24.42;64.01;99130.66;4956980;28;20317;-68
2022/08/27 07:45:14;;;;;;;0.70;0.70;;;;;;;24.43;64.55;99127.94;4956519;28;20489;-68
2022/08/27 07:47:43;;;;;;;2.05;1.35;;;;;;;24.41;64.67;99124.59;4956415;29;20044;-68
2022/08/27 07:50:13;;;;;;;1.95;1.00;;;;;;;24.40;64.98;99115.09;4956892;28;20430;-67
2022/08/27 07:52:43;;;;;;;1.67;1.35;;;;;;;24.43;64.66;99121.88;4956407;29;20074;-69
2022/08/27 07:55:13;;;;;;;1.05;0.95;;;;;;;24.47;64.91;99124.22;4956367;28;20059;-70
2022/08/27 07:57:46;;;;;;;1.30;1.15;;;;;;;24.56;64.79;99122.75;4956001;28;20059;-70
2022/08/27 08:00:15;;;;;;;2.97;1.23;;;;;;;24.71;64.63;99142.63;4956531;28;20421;-69
2022/08/27 08:02:46;;;;;;;1.58;1.48;;;;;;;24.87;63.92;99143.28;4956205;28;20047;-70
2022/08/27 08:05:15;;;;;;;;;;;;;;;25.07;63.73;99134.09;4956557;29;20047;-69
2022/08/27 08:07:44;;;;;;;0.93;0.70;;;;;;;25.19;62.96;99141.91;4956393;28;20029;-69
2022/08/27 08:10:13;;;;;;;1.05;0.93;;;;;;;25.27;62.97;99137.00;4956939;29;20043;-68
2022/08/27 08:12:43;;;;;;;1.48;1.35;;;;;;;25.36;62.69;99134.69;4956281;28;20058;-70
2022/08/27 08:15:14;;;;;;;3.28;1.92;;;;;;;25.46;62.94;99135.75;4956355;28;20130;-70
2022/08/27 08:17:43;;;;;;;2.20;1.27;;;;;;;25.57;62.05;99138.44;4956490;28;20054;-70
2022/08/27 08:20:12;;;;;;;2.38;1.77;;;;;;;25.67;62.35;99137.69;4954620;29;20058;-69
2022/08/27 08:23:01;;;;;;;1.33;1.13;;;;;;;25.87;61.85;99142.31;4955905;28;20051;-70
2022/08/27 08:25:30;;;;;;;1.40;1.27;;;;;;;26.05;61.32;99140.16;4956055;29;20440;-69
2022/08/27 08:28:07;;;;;;;3.67;1.85;;;;;;;26.20;59.38;99141.69;4956252;28;20051;-69
2022/08/27 08:30:36;;;;;;;0.75;0.75;;;;;;;26.35;56.96;99135.31;4955796;29;20055;-67
2022/08/27 08:33:05;;;;;;;1.10;0.80;;;;;;;26.48;55.79;99143.13;4956010;28;20039;-69
2022/08/27 08:35:34;;;;;;;1.85;1.10;;;;;;;26.65;54.97;99137.44;4955860;28;20426;-68
2022/08/27 08:38:09;;;;;;;1.17;0.90;;;;;;;26.82;54.92;99130.97;4955968;28;20498;-67
2022/08/27 08:40:42;;;;;;;8.35;2.58;;;;;;;26.90;54.48;99128.63;4955675;28;20043;-69
2022/08/27 08:43:25;;;;;;;2.75;1.17;;;;;;;27.01;53.56;99132.06;4955581;29;20510;-69
2022/08/27 08:45:55;;;;;;;6.15;0.95;;;;;;;27.11;53.40;99132.19;4955908;29;20047;-69
2022/08/27 08:48:28;;;;;;;0.70;0.70;;;;;;;27.21;53.09;99133.97;4955577;28;20146;-66
2022/08/27 08:51:03;;;;;;;1.10;1.00;;;;;;;27.30;52.89;99128.97;4955807;28;20126;-67
2022/08/27 08:53:41;;;;;;;1.95;1.30;;;;;;;27.40;52.97;99128.19;4956096;29;20085;-68
2022/08/27 08:56:14;;;;;;;1.10;0.85;;;;;;;27.46;52.99;99124.22;4956133;28;20043;-68
2022/08/27 08:58:50;;;;;;;2.45;1.45;;;;;;;27.54;53.21;99125.31;4955739;29;20122;-69
2022/08/27 09:01:21;;;;;;;1.20;1.10;;;;;;;27.61;53.10;99131.75;4955809;28;20051;-68
2022/08/27 09:03:54;;;;;;;1.13;0.93;;;;;;;27.76;53.12;99133.13;4955418;28;20051;-69
2022/08/27 09:06:33;;;;;;;1.33;1.00;;;;;;;27.82;52.80;99130.03;4955378;28;20051;-70
2022/08/27 09:09:13;;;;;;;0.77;0.77;;;;;;;27.91;52.55;99117.94;4955400;29;20134;-69
2022/08/27 09:11:53;;;;;;;0.70;0.70;;;;;;;28.00;52.45;99126.91;4955621;28;20047;-69
2022/08/27 09:14:34;;;;;;;1.05;0.85;;;;;;;28.10;52.32;99118.16;4955336;28;20055;-69
2022/08/27 09:17:04;;;;;;;1.85;1.00;;;;;;;28.13;52.24;99122.31;4955585;28;20058;-70
2022/08/27 09:19:39;;;;;;;0.63;0.63;;;;;;;28.20;51.88;99115.59;4955161;28;20047;-68
2022/08/27 09:22:19;;;;;;;0.63;0.63;;;;;;;28.24;51.72;99111.78;4955243;29;20040;-70
2022/08/27 09:25:00;;;;;;;0.57;0.57;;;;;;;28.27;51.88;99108.88;4955243;28;20082;-69
2022/08/27 09:27:29;;;;;;;0.98;0.85;;;;;;;28.26;51.97;99107.25;4955277;29;20401;-69
2022/08/27 09:30:07;;;;;;;0.77;0.75;;;;;;;28.25;52.12;99100.31;4955141;28;20519;-68
2022/08/27 09:32:37;;;;;;;1.10;1.00;;;;;;;28.26;52.48;99094.94;4955487;29;20043;-69
2022/08/27 09:35:11;;;;;;;0.95;0.90;;;;;;;28.28;52.69;99095.66;4955247;28;20051;-68
2022/08/27 09:37:44;;;;;;;1.50;1.35;;;;;;;28.19;52.64;99096.41;4955126;29;20386;-69
2022/08/27 09:40:19;;;;;;;0.60;0.60;;;;;;;28.18;52.60;99102.63;4955301;28;20054;-68
2022/08/27 09:42:53;;;;;;;1.08;0.90;;;;;;;28.16;53.43;99116.81;4955030;29;20497;-69
2022/08/27 09:45:27;;;;;;;2.10;1.60;;;;;;;28.12;54.18;99094.41;4955039;28;20063;-69
2022/08/27 09:48:07;;;;;;;1.00;0.90;;;;;;;28.15;54.21;99099.41;4955761;28;20047;-68
2022/08/27 09:50:39;;;;;;;19.20;2.00;;;;;;;28.19;54.56;99099.03;4958871;29;20130;-69
2022/08/27 09:53:19;;;;;;;1.63;1.15;;;;;;;28.17;54.53;99102.75;4958585;29;20516;-68
2022/08/27 09:55:53;;;;;;;1.95;1.25;;;;;;;28.11;54.48;99103.25;4958855;28;20051;-67
2022/08/27 09:58:27;;;;;;;0.85;0.85;;;;;;;28.12;55.20;99104.91;4958206;29;20110;-70
2022/08/27 10:01:04;;;;;;;1.48;1.27;;;;;;;28.11;54.46;99103.25;4958577;29;20040;-69
2022/08/27 10:03:34;;;;;;;1.13;1.02;;;;;;;28.10;54.66;99112.09;4958663;28;20074;-69
2022/08/27 10:06:02;;;;;;;1.27;1.17;;;;;;;28.09;54.36;99105.16;4958358;28;20051;-69
2022/08/27 10:08:41;;;;;;;2.80;1.40;;;;;;;28.16;54.22;99108.94;4958591;29;20532;-68
2022/08/27 10:11:15;;;;;;;1.77;1.67;;;;;;;28.23;53.91;99105.69;4958396;29;20126;-68
2022/08/27 10:13:52;;;;;;;0.73;0.73;;;;;;;28.38;54.36;99100.97;4957037;29;20098;-70
2022/08/27 10:16:46;;;;;;;1.40;1.30;;;;;;;28.58;54.28;99093.09;4958463;29;20054;-70
2022/08/27 10:19:30;;;;;;;2.30;1.33;;;;;;;28.67;53.63;99102.03;4958752;28;20050;-68
2022/08/27 10:22:08;;;;;;;0.90;0.80;;;;;;;28.73;53.15;99096.25;4958050;28;20074;-69
2022/08/27 10:24:51;;;;;;;1.30;1.20;;;;;;;28.77;52.84;99100.28;4956860;29;20047;-67
2022/08/27 10:27:28;;;;;;;3.08;0.70;;;;;;;28.81;52.66;99092.97;4958073;28;20047;-69
2022/08/27 10:30:03;;;;;;;1.83;1.65;;;;;;;28.98;53.26;99095.84;4958265;28;20122;-70
2022/08/27 10:32:49;;;;;;;0.70;0.70;;;;;;;29.11;52.82;99085.09;4957952;28;20051;-70
2022/08/27 10:35:25;;;;;;;1.58;1.30;;;;;;;29.19;52.45;99087.94;4957862;28;20070;-70
2022/08/27 10:38:07;;;;;;;1.55;1.25;;;;;;;29.27;52.83;99084.66;4957749;28;20118;-70
2022/08/27 10:40:42;;;;;;;1.75;1.20;;;;;;;29.34;53.06;99091.03;4958001;29;20383;-69
2022/08/27 10:43:30;;;;;;;2.25;1.42;;;;;;;29.39;52.78;99091.47;4956563;29;20051;-69
2022/08/27 10:46:11;;;;;;;1.35;1.25;;;;;;;29.42;52.82;99093.84;4958127;29;20381;-68
2022/08/27 10:48:52;;;;;;;12.75;1.27;;;;;;;29.42;52.33;99086.75;4957636;28;20497;-68
2022/08/27 10:51:28;;;;;;;1.13;0.82;;;;;;;29.42;51.88;99083.31;4957850;28;20054;-70
2022/08/27 10:54:04;;;;;;;0.70;0.70;;;;;;;29.46;51.86;99089.97;4957839;28;20059;-69
2022/08/27 10:56:39;;;;;;;1.23;1.00;;;;;;;29.46;51.44;99095.22;4957403;28;20051;-71
2022/08/27 10:59:18;;;;;;;1.92;1.25;;;;;;;29.51;51.47;99093.03;4956463;28;20063;-68
2022/08/27 11:01:52;;;;;;;1.40;1.30;;;;;;;29.50;51.41;99096.59;4957238;28;20379;-70
2022/08/27 11:04:26;;;;;;;1.13;1.02;;;;;;;29.59;50.85;99090.53;4957326;28;20138;-69
2022/08/27 11:06:59;;;;;;;2.38;1.48;;;;;;;29.72;50.57;99104.28;4957307;28;20058;-69
2022/08/27 11:09:36;;;;;;;2.75;2.22;;;;;;;29.97;50.72;99098.50;4956344;29;20051;-70
2022/08/27 11:12:09;;;;;;;2.13;1.55;;;;;;;30.22;50.41;99084.81;4957156;29;20054;-69
2022/08/27 11:14:51;;;;;;;2.00;1.40;;;;;;;30.34;49.52;99089.00;4957437;29;20069;-69
2022/08/27 11:17:29;;;;;;;1.45;1.35;;;;;;;30.48;49.43;99091.19;4957362;29;20486;-70
2022/08/27 11:20:07;;;;;;;2.22;1.17;;;;;;;30.64;50.24;99081.88;4957375;29;20409;-70
2022/08/27 11:22:40;;;;;;;1.08;0.90;;;;;;;30.79;49.20;99078.63;4956995;28;20106;-68
2022/08/27 11:25:27;;;;;;;1.10;0.90;;;;;;;30.79;48.36;99080.44;4957241;28;20047;-68
2022/08/27 11:27:57;;;;;;;1.85;1.17;;;;;;;30.85;47.93;99077.22;4957223;28;20063;-69
2022/08/27 11:30:31;;;;;;;3.17;1.52;;;;;;;30.96;47.91;99079.72;4956882;29;20051;-69
2022/08/27 11:33:08;;;;;;;1.08;0.65;;;;;;;30.98;47.70;99078.59;4956792;29;20055;-70
2022/08/27 11:36:02;;;;;;;1.30;1.20;;;;;;;31.01;47.14;99077.47;4957028;29;20450;-68
2022/08/27 11:38:44;;;;;;;2.05;1.25;;;;;;;31.00;47.49;99075.84;4956781;28;20557;-69
2022/08/27 11:41:35;;;;;;;1.15;0.95;;;;;;;31.10;47.85;99079.22;4956897;28;20548;-69
2022/08/27 11:44:15;;;;;;;1.10;0.90;;;;;;;31.24;48.08;99070.88;4956641;28;20091;-69
2022/08/27 11:46:47;;;;;;;0.88;0.80;;;;;;;31.34;48.27;99070.81;4956580;28;20055;-69
2022/08/27 11:49:28;;;;;;;0.90;0.90;;;;;;;31.41;47.81;99070.06;4956823;29;20055;-69
2022/08/27 11:52:02;;;;;;;1.10;0.73;;;;;;;31.44;47.96;99064.53;4956766;28;20446;-69
2022/08/27 11:54:44;;;;;;;0.80;0.80;;;;;;;31.27;48.05;99062.63;4956795;29;20054;-69
2022/08/27 11:57:30;;;;;;;5.15;1.80;;;;;;;31.18;47.91;99068.81;4955900;29;20059;-69
2022/08/27 12:00:11;;;;;;;0.73;0.73;;;;;;;31.26;47.08;99063.63;4956305;29;20055;-69
2022/08/27 12:02:40;;;;;;;0.98;0.80;;;;;;;31.21;46.71;99060.59;4956555;28;20047;-68
2022/08/27 12:05:10;;;;;;;;;;;;;;;31.23;47.26;99060.44;4956534;29;20079;-69